createdAt,value
2017-10-22T00:00:18.085Z,0
2017-10-22T00:01:20.458Z,0
2017-10-22T00:02:22.845Z,0
2017-10-22T00:03:25.218Z,0
2017-10-22T00:04:27.604Z,0
2017-10-22T00:05:29.985Z,0
2017-10-22T00:06:32.359Z,0
2017-10-22T00:07:34.747Z,0
2017-10-22T00:08:37.123Z,0
2017-10-22T00:09:39.500Z,0
2017-10-22T00:10:41.879Z,0
2017-10-22T00:11:44.603Z,0
2017-10-22T00:12:47.341Z,0
2017-10-22T00:13:49.715Z,0
2017-10-22T00:14:52.439Z,0
2017-10-22T00:15:54.808Z,0
2017-10-22T00:16:57.190Z,0
2017-10-22T00:17:59.568Z,0
2017-10-22T00:19:01.935Z,0
2017-10-22T00:20:04.312Z,0
2017-10-22T00:21:06.690Z,0
2017-10-22T00:22:09.061Z,0
2017-10-22T00:23:11.442Z,0
2017-10-22T00:24:14.171Z,0
2017-10-22T00:25:16.553Z,0
2017-10-22T00:26:19.279Z,0
2017-10-22T00:27:21.663Z,0
2017-10-22T00:28:24.024Z,0
2017-10-22T00:29:26.422Z,0
2017-10-22T00:30:28.784Z,0
2017-10-22T00:31:31.168Z,0
2017-10-22T00:32:33.913Z,0
2017-10-22T00:33:36.293Z,0
2017-10-22T00:34:38.678Z,0
2017-10-22T00:35:41.048Z,0
2017-10-22T00:36:43.431Z,0
2017-10-22T00:37:45.808Z,0
2017-10-22T00:38:48.172Z,0
2017-10-22T00:39:50.577Z,0
2017-10-22T00:40:52.953Z,0
2017-10-22T00:41:55.335Z,0
2017-10-22T00:42:57.706Z,0
2017-10-22T00:44:00.078Z,0
2017-10-22T00:45:02.448Z,0
2017-10-22T00:46:04.832Z,0
2017-10-22T00:47:07.197Z,0
2017-10-22T00:48:09.578Z,0
2017-10-22T00:49:12.312Z,0
2017-10-22T00:50:14.689Z,0
2017-10-22T00:51:17.761Z,0
2017-10-22T00:52:20.148Z,0
2017-10-22T00:53:22.517Z,0
2017-10-22T00:54:24.896Z,0
2017-10-22T00:55:27.272Z,0
2017-10-22T00:56:29.647Z,0
2017-10-22T00:57:32.030Z,0
2017-10-22T00:58:34.405Z,0
2017-10-22T00:59:36.782Z,0
2017-10-22T01:00:39.164Z,0
2017-10-22T01:01:41.895Z,0
2017-10-22T01:02:44.260Z,0
2017-10-22T01:03:46.657Z,0
2017-10-22T01:04:49.036Z,0
2017-10-22T01:05:51.408Z,0
2017-10-22T01:06:53.795Z,0
2017-10-22T01:07:56.169Z,0
2017-10-22T01:08:58.551Z,0
2017-10-22T01:10:00.933Z,0
2017-10-22T01:11:03.301Z,0
2017-10-22T01:12:05.678Z,0
2017-10-22T01:13:08.067Z,0
2017-10-22T01:14:10.436Z,0
2017-10-22T01:15:12.812Z,0
2017-10-22T01:16:15.195Z,0
2017-10-22T01:17:17.573Z,0
2017-10-22T01:18:19.947Z,0
2017-10-22T01:19:22.318Z,0
2017-10-22T01:20:24.706Z,0
2017-10-22T01:21:27.078Z,0
2017-10-22T01:22:29.450Z,0
2017-10-22T01:23:31.838Z,0
2017-10-22T01:24:34.212Z,0
2017-10-22T01:25:36.582Z,0
2017-10-22T01:26:38.966Z,0
2017-10-22T01:27:41.331Z,0
2017-10-22T01:28:43.712Z,0
2017-10-22T01:29:46.096Z,0
2017-10-22T01:30:48.470Z,0
2017-10-22T01:31:50.840Z,0
2017-10-22T01:32:53.571Z,0
2017-10-22T01:33:55.941Z,0
2017-10-22T01:34:58.335Z,0
2017-10-22T01:36:00.707Z,0
2017-10-22T01:37:03.437Z,0
2017-10-22T01:38:05.819Z,0
2017-10-22T01:39:08.192Z,0
2017-10-22T01:40:10.922Z,0
2017-10-22T01:41:13.298Z,0
2017-10-22T01:42:15.667Z,0
2017-10-22T01:43:18.053Z,0
2017-10-22T01:44:20.425Z,0
2017-10-22T01:45:22.805Z,0
2017-10-22T01:46:25.179Z,0
2017-10-22T01:47:27.548Z,0
2017-10-22T01:48:29.926Z,0
2017-10-22T01:49:32.296Z,0
2017-10-22T01:50:34.673Z,0
2017-10-22T01:51:37.049Z,0
2017-10-22T01:52:39.420Z,0
2017-10-22T01:53:41.797Z,0
2017-10-22T01:54:44.179Z,0
2017-10-22T01:55:46.551Z,0
2017-10-22T01:56:49.314Z,0
2017-10-22T01:57:51.685Z,0
2017-10-22T01:58:54.073Z,0
2017-10-22T01:59:56.438Z,0
2017-10-22T02:00:58.817Z,0
2017-10-22T02:02:01.194Z,0
2017-10-22T02:03:03.571Z,0
2017-10-22T02:04:05.945Z,0
2017-10-22T02:05:08.324Z,0
2017-10-22T02:06:10.696Z,0
2017-10-22T02:07:13.063Z,0
2017-10-22T02:08:15.804Z,0
2017-10-22T02:09:18.185Z,0
2017-10-22T02:10:20.548Z,0
2017-10-22T02:11:22.930Z,0
2017-10-22T02:12:25.308Z,0
2017-10-22T02:13:28.039Z,0
2017-10-22T02:14:30.413Z,0
2017-10-22T02:15:32.794Z,0
2017-10-22T02:16:35.165Z,0
2017-10-22T02:17:37.547Z,0
2017-10-22T02:18:39.917Z,0
2017-10-22T02:19:42.300Z,0
2017-10-22T02:20:44.681Z,0
2017-10-22T02:21:47.405Z,0
2017-10-22T02:22:49.790Z,0
2017-10-22T02:23:52.162Z,0
2017-10-22T02:24:54.544Z,0
2017-10-22T02:25:56.925Z,0
2017-10-22T02:26:59.284Z,0
2017-10-22T02:28:01.653Z,0
2017-10-22T02:29:04.390Z,0
2017-10-22T02:30:06.767Z,0
2017-10-22T02:31:09.850Z,0
2017-10-22T02:32:12.227Z,0
2017-10-22T02:33:14.590Z,0
2017-10-22T02:34:16.980Z,0
2017-10-22T02:35:19.352Z,0
2017-10-22T02:36:21.727Z,0
2017-10-22T02:37:24.107Z,0
2017-10-22T02:38:26.482Z,0
2017-10-22T02:39:28.862Z,0
2017-10-22T02:40:31.241Z,0
2017-10-22T02:41:33.609Z,0
2017-10-22T02:42:35.985Z,0
2017-10-22T02:43:38.376Z,0
2017-10-22T02:44:40.752Z,0
2017-10-22T02:45:43.475Z,0
2017-10-22T02:46:45.885Z,0
2017-10-22T02:47:48.268Z,0
2017-10-22T02:48:50.642Z,0
2017-10-22T02:49:53.016Z,0
2017-10-22T02:50:55.402Z,0
2017-10-22T02:51:57.779Z,0
2017-10-22T02:53:00.149Z,0
2017-10-22T02:54:02.529Z,0
2017-10-22T02:55:04.904Z,0
2017-10-22T02:56:07.276Z,0
2017-10-22T02:57:09.658Z,0
2017-10-22T02:58:12.026Z,0
2017-10-22T02:59:14.400Z,0
2017-10-22T03:00:16.792Z,0
2017-10-22T03:01:19.164Z,0
2017-10-22T03:02:21.528Z,0
2017-10-22T03:03:23.902Z,0
2017-10-22T03:04:26.628Z,0
2017-10-22T03:05:29.012Z,0
2017-10-22T03:06:31.392Z,0
2017-10-22T03:07:34.100Z,0
2017-10-22T03:08:36.495Z,0
2017-10-22T03:09:38.870Z,0
2017-10-22T03:10:41.242Z,0
2017-10-22T03:11:43.626Z,0
2017-10-22T03:12:45.995Z,0
2017-10-22T03:13:48.365Z,0
2017-10-22T03:14:50.764Z,0
2017-10-22T03:15:53.474Z,0
2017-10-22T03:16:55.863Z,0
2017-10-22T03:17:58.587Z,0
2017-10-22T03:19:00.967Z,0
2017-10-22T03:20:03.349Z,0
2017-10-22T03:21:05.707Z,0
2017-10-22T03:22:08.094Z,0
2017-10-22T03:23:10.464Z,0
2017-10-22T03:24:12.824Z,0
2017-10-22T03:25:15.195Z,0
2017-10-22T03:26:17.581Z,0
2017-10-22T03:27:20.302Z,0
2017-10-22T03:28:22.678Z,0
2017-10-22T03:29:25.060Z,0
2017-10-22T03:30:27.426Z,0
2017-10-22T03:31:29.810Z,0
2017-10-22T03:32:32.188Z,0
2017-10-22T03:33:34.555Z,0
2017-10-22T03:34:36.934Z,0
2017-10-22T03:35:39.314Z,0
2017-10-22T03:36:41.687Z,0
2017-10-22T03:37:44.067Z,0
2017-10-22T03:38:46.431Z,0
2017-10-22T03:39:48.799Z,0
2017-10-22T03:40:51.189Z,0
2017-10-22T03:41:53.556Z,0
2017-10-22T03:42:55.934Z,0
2017-10-22T03:43:58.310Z,0
2017-10-22T03:45:00.683Z,0
2017-10-22T03:46:03.761Z,0
2017-10-22T03:47:06.134Z,0
2017-10-22T03:48:08.513Z,0
2017-10-22T03:49:10.888Z,0
2017-10-22T03:50:13.265Z,0
2017-10-22T03:51:15.632Z,0
2017-10-22T03:52:18.364Z,0
2017-10-22T03:53:20.739Z,0
2017-10-22T03:54:23.119Z,0
2017-10-22T03:55:25.482Z,0
2017-10-22T03:56:28.208Z,0
2017-10-22T03:57:30.579Z,0
2017-10-22T03:58:32.957Z,0
2017-10-22T03:59:35.327Z,0
2017-10-22T04:00:37.709Z,0
2017-10-22T04:01:40.076Z,0
2017-10-22T04:02:42.452Z,0
2017-10-22T04:03:44.828Z,0
2017-10-22T04:04:47.239Z,0
2017-10-22T04:05:49.611Z,0
2017-10-22T04:06:51.996Z,0
2017-10-22T04:07:54.742Z,0
2017-10-22T04:08:57.112Z,0
2017-10-22T04:09:59.494Z,0
2017-10-22T04:11:01.856Z,0
2017-10-22T04:12:04.226Z,0
2017-10-22T04:13:06.988Z,0
2017-10-22T04:14:09.349Z,0
2017-10-22T04:15:11.717Z,0
2017-10-22T04:16:14.104Z,0
2017-10-22T04:17:16.465Z,0
2017-10-22T04:18:18.846Z,0
2017-10-22T04:19:21.270Z,0
2017-10-22T04:20:23.645Z,0
2017-10-22T04:21:26.370Z,0
2017-10-22T04:22:28.761Z,0
2017-10-22T04:23:31.128Z,0
2017-10-22T04:24:33.508Z,0
2017-10-22T04:25:35.890Z,0
2017-10-22T04:26:38.264Z,0
2017-10-22T04:27:40.635Z,0
2017-10-22T04:28:43.016Z,0
2017-10-22T04:29:45.731Z,0
2017-10-22T04:30:48.111Z,0
2017-10-22T04:31:50.479Z,0
2017-10-22T04:32:52.859Z,0
2017-10-22T04:33:55.231Z,0
2017-10-22T04:34:57.611Z,0
2017-10-22T04:35:59.978Z,0
2017-10-22T04:37:02.360Z,0
2017-10-22T04:38:04.718Z,0
2017-10-22T04:39:07.098Z,0
2017-10-22T04:40:09.474Z,0
2017-10-22T04:41:11.843Z,0
2017-10-22T04:42:14.220Z,0
2017-10-22T04:43:16.596Z,0
2017-10-22T04:44:18.972Z,0
2017-10-22T04:45:21.351Z,0
2017-10-22T04:46:23.720Z,0
2017-10-22T04:47:26.105Z,0
2017-10-22T04:48:29.177Z,0
2017-10-22T04:49:31.535Z,0
2017-10-22T04:50:33.913Z,0
2017-10-22T04:51:36.288Z,0
2017-10-22T04:52:38.670Z,0
2017-10-22T04:53:41.041Z,0
2017-10-22T04:54:43.415Z,0
2017-10-22T04:55:45.785Z,0
2017-10-22T04:56:48.169Z,0
2017-10-22T04:57:50.541Z,0
2017-10-22T04:58:52.906Z,0
2017-10-22T04:59:55.282Z,0
2017-10-22T05:00:57.656Z,0
2017-10-22T05:02:00.047Z,0
2017-10-22T05:03:02.419Z,0
2017-10-22T05:04:04.786Z,0
2017-10-22T05:05:07.161Z,0
2017-10-22T05:06:09.533Z,0
2017-10-22T05:07:11.914Z,0
2017-10-22T05:08:14.280Z,0
2017-10-22T05:09:16.659Z,0
2017-10-22T05:10:19.019Z,0
2017-10-22T05:11:21.411Z,0
2017-10-22T05:12:23.783Z,0
2017-10-22T05:13:26.152Z,0
2017-10-22T05:14:28.879Z,0
2017-10-22T05:15:31.254Z,0
2017-10-22T05:16:33.623Z,0
2017-10-22T05:17:35.996Z,0
2017-10-22T05:18:38.364Z,0
2017-10-22T05:19:40.750Z,0
2017-10-22T05:20:43.119Z,4
2017-10-22T05:21:45.488Z,4
2017-10-22T05:22:47.860Z,4
2017-10-22T05:23:50.228Z,4
2017-10-22T05:24:52.608Z,4
2017-10-22T05:25:54.980Z,8
2017-10-22T05:26:57.343Z,4
2017-10-22T05:27:59.710Z,8
2017-10-22T05:29:02.095Z,8
2017-10-22T05:30:04.453Z,12
2017-10-22T05:31:06.830Z,16
2017-10-22T05:32:09.208Z,16
2017-10-22T05:33:11.577Z,20
2017-10-22T05:34:13.958Z,24
2017-10-22T05:35:16.325Z,32
2017-10-22T05:36:18.697Z,36
2017-10-22T05:37:21.078Z,40
2017-10-22T05:38:23.449Z,48
2017-10-22T05:39:25.820Z,56
2017-10-22T05:40:28.195Z,68
2017-10-22T05:41:30.571Z,80
2017-10-22T05:42:33.313Z,88
2017-10-22T05:43:36.023Z,96
2017-10-22T05:44:38.405Z,112
2017-10-22T05:45:41.136Z,124
2017-10-22T05:46:43.501Z,144
2017-10-22T05:47:45.878Z,160
2017-10-22T05:48:48.258Z,180
2017-10-22T05:49:50.630Z,204
2017-10-22T05:50:53.008Z,228
2017-10-22T05:51:55.369Z,256
2017-10-22T05:52:57.738Z,280
2017-10-22T05:54:00.140Z,300
2017-10-22T05:55:02.499Z,320
2017-10-22T05:56:04.866Z,332
2017-10-22T05:57:07.247Z,348
2017-10-22T05:58:09.615Z,364
2017-10-22T05:59:11.988Z,388
2017-10-22T06:00:14.361Z,416
2017-10-22T06:01:16.730Z,444
2017-10-22T06:02:19.103Z,468
2017-10-22T06:03:21.477Z,492
2017-10-22T06:04:24.204Z,520
2017-10-22T06:05:26.574Z,536
2017-10-22T06:06:28.946Z,560
2017-10-22T06:07:31.327Z,588
2017-10-22T06:08:34.059Z,620
2017-10-22T06:09:36.428Z,660
2017-10-22T06:10:38.824Z,700
2017-10-22T06:11:41.184Z,748
2017-10-22T06:12:43.567Z,800
2017-10-22T06:13:46.286Z,844
2017-10-22T06:14:48.662Z,876
2017-10-22T06:15:51.043Z,888
2017-10-22T06:16:53.790Z,904
2017-10-22T06:17:56.153Z,916
2017-10-22T06:18:58.526Z,932
2017-10-22T06:20:00.913Z,956
2017-10-22T06:21:03.289Z,1000
2017-10-22T06:22:06.001Z,1040
2017-10-22T06:23:08.372Z,1052
2017-10-22T06:24:10.740Z,1068
2017-10-22T06:25:13.478Z,1096
2017-10-22T06:26:15.857Z,1140
2017-10-22T06:27:18.214Z,1204
2017-10-22T06:28:20.604Z,1296
2017-10-22T06:29:22.961Z,1384
2017-10-22T06:30:25.348Z,1412
2017-10-22T06:31:27.717Z,1408
2017-10-22T06:32:30.093Z,1404
2017-10-22T06:33:32.467Z,1384
2017-10-22T06:34:34.842Z,1388
2017-10-22T06:35:37.207Z,1468
2017-10-22T06:36:39.590Z,1504
2017-10-22T06:37:41.959Z,1460
2017-10-22T06:38:44.326Z,1316
2017-10-22T06:39:46.708Z,1172
2017-10-22T06:40:49.082Z,1020
2017-10-22T06:41:51.451Z,884
2017-10-22T06:42:53.845Z,772
2017-10-22T06:43:56.214Z,672
2017-10-22T06:44:58.593Z,656
2017-10-22T06:46:00.978Z,668
2017-10-22T06:47:03.339Z,688
2017-10-22T06:48:05.719Z,720
2017-10-22T06:49:08.090Z,752
2017-10-22T06:50:10.811Z,788
2017-10-22T06:51:13.182Z,840
2017-10-22T06:52:15.547Z,928
2017-10-22T06:53:17.928Z,1048
2017-10-22T06:54:20.298Z,1152
2017-10-22T06:55:22.678Z,1348
2017-10-22T06:56:25.050Z,1720
2017-10-22T06:57:27.777Z,2008
2017-10-22T06:58:30.143Z,2076
2017-10-22T06:59:32.520Z,2120
2017-10-22T07:00:35.233Z,2052
2017-10-22T07:01:37.597Z,2004
2017-10-22T07:02:39.985Z,2016
2017-10-22T07:03:42.353Z,1908
2017-10-22T07:04:45.091Z,1828
2017-10-22T07:05:47.456Z,1852
2017-10-22T07:06:49.830Z,1992
2017-10-22T07:07:52.217Z,2220
2017-10-22T07:08:54.639Z,2392
2017-10-22T07:09:57.065Z,2528
2017-10-22T07:10:59.859Z,2624
2017-10-22T07:12:02.305Z,2688
2017-10-22T07:13:04.724Z,2700
2017-10-22T07:14:07.156Z,2652
2017-10-22T07:15:09.574Z,2588
2017-10-22T07:16:11.995Z,2712
2017-10-22T07:17:14.441Z,3040
2017-10-22T07:18:16.862Z,3524
2017-10-22T07:19:19.295Z,4032
2017-10-22T07:20:21.725Z,4416
2017-10-22T07:21:24.152Z,4648
2017-10-22T07:22:26.592Z,4816
2017-10-22T07:23:29.030Z,4840
2017-10-22T07:24:31.448Z,4736
2017-10-22T07:25:34.230Z,4636
2017-10-22T07:26:36.671Z,4476
2017-10-22T07:27:39.108Z,4392
2017-10-22T07:28:41.585Z,4300
2017-10-22T07:29:44.313Z,4128
2017-10-22T07:30:46.797Z,3856
2017-10-22T07:31:49.245Z,3716
2017-10-22T07:32:52.043Z,3796
2017-10-22T07:33:54.464Z,4040
2017-10-22T07:34:56.942Z,4152
2017-10-22T07:35:59.393Z,3848
2017-10-22T07:37:02.249Z,3652
2017-10-22T07:38:04.699Z,3852
2017-10-22T07:39:07.177Z,4136
2017-10-22T07:40:09.651Z,4476
2017-10-22T07:41:12.190Z,4772
2017-10-22T07:42:14.699Z,4924
2017-10-22T07:43:17.191Z,4960
2017-10-22T07:44:20.007Z,5164
2017-10-22T07:45:22.443Z,5076
2017-10-22T07:46:24.888Z,4692
2017-10-22T07:47:27.342Z,4552
2017-10-22T07:48:29.792Z,4748
2017-10-22T07:49:32.207Z,4800
2017-10-22T07:50:34.661Z,5060
2017-10-22T07:51:37.092Z,5184
2017-10-22T07:52:39.542Z,5480
2017-10-22T07:53:41.975Z,5396
2017-10-22T07:54:44.416Z,5432
2017-10-22T07:55:46.851Z,5660
2017-10-22T07:56:49.309Z,5732
2017-10-22T07:57:51.745Z,5492
2017-10-22T07:58:54.191Z,5292
2017-10-22T07:59:56.623Z,5152
2017-10-22T08:00:59.060Z,5020
2017-10-22T08:02:01.480Z,5144
2017-10-22T08:03:03.916Z,5240
2017-10-22T08:04:06.345Z,5152
2017-10-22T08:05:09.143Z,5248
2017-10-22T08:06:11.581Z,5496
2017-10-22T08:07:14.004Z,5704
2017-10-22T08:08:16.425Z,5832
2017-10-22T08:09:18.877Z,5816
2017-10-22T08:10:21.313Z,5672
2017-10-22T08:11:23.899Z,5588
2017-10-22T08:12:26.328Z,5528
2017-10-22T08:13:28.789Z,5424
2017-10-22T08:14:31.203Z,5400
2017-10-22T08:15:33.638Z,5444
2017-10-22T08:16:36.077Z,5492
2017-10-22T08:17:38.504Z,5516
2017-10-22T08:18:40.950Z,5740
2017-10-22T08:19:43.381Z,6192
2017-10-22T08:20:45.808Z,6812
2017-10-22T08:21:48.250Z,7144
2017-10-22T08:22:50.682Z,7296
2017-10-22T08:23:53.128Z,7388
2017-10-22T08:24:55.552Z,7508
2017-10-22T08:25:57.984Z,7800
2017-10-22T08:27:00.420Z,8180
2017-10-22T08:28:02.854Z,8476
2017-10-22T08:29:05.284Z,8792
2017-10-22T08:30:07.738Z,9036
2017-10-22T08:31:10.146Z,9196
2017-10-22T08:32:12.944Z,9260
2017-10-22T08:33:15.371Z,9256
2017-10-22T08:34:17.816Z,9168
2017-10-22T08:35:20.247Z,9016
2017-10-22T08:36:22.680Z,8836
2017-10-22T08:37:25.110Z,8832
2017-10-22T08:38:27.554Z,8908
2017-10-22T08:39:29.973Z,8796
2017-10-22T08:40:32.418Z,8512
2017-10-22T08:41:34.854Z,8220
2017-10-22T08:42:37.287Z,8192
2017-10-22T08:43:39.734Z,8336
2017-10-22T08:44:42.168Z,8332
2017-10-22T08:45:44.605Z,8100
2017-10-22T08:46:47.766Z,8060
2017-10-22T08:47:50.201Z,8132
2017-10-22T08:48:52.629Z,8208
2017-10-22T08:49:55.069Z,8304
2017-10-22T08:50:57.497Z,8448
2017-10-22T08:51:59.930Z,8596
2017-10-22T08:53:02.365Z,8784
2017-10-22T08:54:05.144Z,9064
2017-10-22T08:55:07.567Z,9408
2017-10-22T08:56:09.995Z,9820
2017-10-22T08:57:12.776Z,10312
2017-10-22T08:58:15.202Z,10924
2017-10-22T08:59:17.638Z,11736
2017-10-22T09:00:20.607Z,12488
2017-10-22T09:01:23.033Z,13236
2017-10-22T09:02:25.468Z,14044
2017-10-22T09:03:27.902Z,14572
2017-10-22T09:04:30.342Z,16312
2017-10-22T09:05:33.127Z,18528
2017-10-22T09:06:35.544Z,19776
2017-10-22T09:07:38.005Z,24160
2017-10-22T09:08:40.504Z,25440
2017-10-22T09:09:43.285Z,24896
2017-10-22T09:10:45.718Z,22144
2017-10-22T09:11:48.501Z,27072
2017-10-22T09:12:50.940Z,24000
2017-10-22T09:13:53.360Z,26560
2017-10-22T09:14:55.796Z,35744
2017-10-22T09:15:58.233Z,30944
2017-10-22T09:17:00.665Z,33888
2017-10-22T09:18:03.105Z,30048
2017-10-22T09:19:05.533Z,39648
2017-10-22T09:20:07.980Z,40800
2017-10-22T09:21:10.403Z,39808
2017-10-22T09:22:12.833Z,43232
2017-10-22T09:23:15.269Z,32960
2017-10-22T09:24:17.698Z,40512
2017-10-22T09:25:20.148Z,33408
2017-10-22T09:26:22.576Z,53504
2017-10-22T09:27:25.021Z,58240
2017-10-22T09:28:27.445Z,66272
2017-10-22T09:29:29.892Z,67232
2017-10-22T09:30:32.320Z,60960
2017-10-22T09:31:34.762Z,68896
2017-10-22T09:32:37.217Z,68992
2017-10-22T09:33:39.639Z,66496
2017-10-22T09:34:42.087Z,68000
2017-10-22T09:35:44.524Z,68352
2017-10-22T09:36:46.952Z,68512
2017-10-22T09:37:49.396Z,71840
2017-10-22T09:38:51.815Z,75424
2017-10-22T09:39:54.618Z,71264
2017-10-22T09:40:57.078Z,69728
2017-10-22T09:41:59.538Z,67360
2017-10-22T09:43:01.991Z,68096
2017-10-22T09:44:04.430Z,66304
2017-10-22T09:45:06.910Z,68128
2017-10-22T09:46:09.732Z,70400
2017-10-22T09:47:12.196Z,67104
2017-10-22T09:48:14.664Z,64992
2017-10-22T09:49:17.109Z,65952
2017-10-22T09:50:19.579Z,68448
2017-10-22T09:51:22.038Z,68832
2017-10-22T09:52:24.535Z,69440
2017-10-22T09:53:26.989Z,46880
2017-10-22T09:54:29.451Z,36608
2017-10-22T09:55:31.910Z,75232
2017-10-22T09:56:34.397Z,77088
2017-10-22T09:57:37.214Z,76416
2017-10-22T09:58:39.672Z,73952
2017-10-22T09:59:42.213Z,73728
2017-10-22T10:00:44.672Z,72416
2017-10-22T10:01:47.282Z,68160
2017-10-22T10:02:50.079Z,71360
2017-10-22T10:03:52.550Z,73696
2017-10-22T10:04:55.098Z,75680
2017-10-22T10:05:57.918Z,60384
2017-10-22T10:07:00.372Z,46176
2017-10-22T10:08:02.821Z,38208
2017-10-22T10:09:05.286Z,45408
2017-10-22T10:10:07.832Z,33376
2017-10-22T10:11:10.291Z,34368
2017-10-22T10:12:12.758Z,16940
2017-10-22T10:13:15.206Z,50528
2017-10-22T10:14:17.670Z,56704
2017-10-22T10:15:20.125Z,22144
2017-10-22T10:16:22.585Z,60128
2017-10-22T10:17:25.410Z,72224
2017-10-22T10:18:27.862Z,53440
2017-10-22T10:19:30.326Z,62208
2017-10-22T10:20:33.138Z,50816
2017-10-22T10:21:35.589Z,85888
2017-10-22T10:22:38.043Z,76640
2017-10-22T10:23:40.505Z,72448
2017-10-22T10:24:42.962Z,30112
2017-10-22T10:25:45.442Z,72416
2017-10-22T10:26:48.617Z,81472
2017-10-22T10:27:51.069Z,77248
2017-10-22T10:28:53.544Z,43008
2017-10-22T10:29:56.350Z,23232
2017-10-22T10:30:58.798Z,26304
2017-10-22T10:32:01.639Z,24128
2017-10-22T10:33:04.105Z,19168
2017-10-22T10:34:06.564Z,18704
2017-10-22T10:35:09.032Z,19264
2017-10-22T10:36:11.492Z,21312
2017-10-22T10:37:13.937Z,16688
2017-10-22T10:38:16.397Z,13800
2017-10-22T10:39:18.862Z,15288
2017-10-22T10:40:21.321Z,32736
2017-10-22T10:41:23.812Z,85056
2017-10-22T10:42:26.238Z,21792
2017-10-22T10:43:28.697Z,19776
2017-10-22T10:44:31.162Z,87520
2017-10-22T10:45:33.614Z,94016
2017-10-22T10:46:36.088Z,79904
2017-10-22T10:47:38.547Z,38720
2017-10-22T10:48:41.008Z,19360
2017-10-22T10:49:43.467Z,19360
2017-10-22T10:50:45.913Z,16684
2017-10-22T10:51:48.349Z,15824
2017-10-22T10:52:50.799Z,18524
2017-10-22T10:53:53.238Z,15776
2017-10-22T10:54:55.706Z,12692
2017-10-22T10:55:58.159Z,10960
2017-10-22T10:57:00.617Z,8968
2017-10-22T10:58:03.080Z,9352
2017-10-22T10:59:05.537Z,10668
2017-10-22T11:00:07.981Z,12028
2017-10-22T11:01:10.427Z,13732
2017-10-22T11:02:12.870Z,16596
2017-10-22T11:03:15.326Z,17864
2017-10-22T11:04:17.778Z,18336
2017-10-22T11:05:20.235Z,17012
2017-10-22T11:06:22.690Z,16540
2017-10-22T11:07:25.151Z,16872
2017-10-22T11:08:27.945Z,15360
2017-10-22T11:09:30.411Z,16320
2017-10-22T11:10:33.220Z,17852
2017-10-22T11:11:35.677Z,28544
2017-10-22T11:12:38.510Z,20928
2017-10-22T11:13:40.966Z,19360
2017-10-22T11:14:43.406Z,17552
2017-10-22T11:15:45.849Z,16648
2017-10-22T11:16:48.284Z,21888
2017-10-22T11:17:50.728Z,54176
2017-10-22T11:18:53.425Z,30240
2017-10-22T11:19:55.863Z,24512
2017-10-22T11:20:58.678Z,19072
2017-10-22T11:22:01.122Z,20224
2017-10-22T11:23:03.923Z,23776
2017-10-22T11:24:06.366Z,27488
2017-10-22T11:25:09.160Z,24352
2017-10-22T11:26:11.590Z,17676
2017-10-22T11:27:14.410Z,14648
2017-10-22T11:28:16.844Z,15660
2017-10-22T11:29:19.643Z,14224
2017-10-22T11:30:22.081Z,12168
2017-10-22T11:31:24.518Z,11796
2017-10-22T11:32:26.956Z,12252
2017-10-22T11:33:29.399Z,13100
2017-10-22T11:34:31.830Z,13924
2017-10-22T11:35:34.271Z,15280
2017-10-22T11:36:36.718Z,15032
2017-10-22T11:37:39.527Z,14296
2017-10-22T11:38:41.946Z,15120
2017-10-22T11:39:44.383Z,17528
2017-10-22T11:40:47.193Z,23104
2017-10-22T11:41:49.628Z,27456
2017-10-22T11:42:52.079Z,31744
2017-10-22T11:43:54.509Z,29408
2017-10-22T11:44:56.952Z,34400
2017-10-22T11:45:59.391Z,38720
2017-10-22T11:47:01.840Z,28768
2017-10-22T11:48:04.283Z,26176
2017-10-22T11:49:06.723Z,24320
2017-10-22T11:50:09.157Z,23424
2017-10-22T11:51:11.951Z,20736
2017-10-22T11:52:14.381Z,18184
2017-10-22T11:53:16.829Z,16788
2017-10-22T11:54:19.257Z,15484
2017-10-22T11:55:22.045Z,13160
2017-10-22T11:56:24.481Z,11608
2017-10-22T11:57:26.924Z,9824
2017-10-22T11:58:29.353Z,8900
2017-10-22T11:59:31.801Z,8168
2017-10-22T12:00:34.221Z,7048
2017-10-22T12:01:36.670Z,6164
2017-10-22T12:02:39.106Z,5784
2017-10-22T12:03:41.540Z,5324
2017-10-22T12:04:43.982Z,5380
2017-10-22T12:05:46.418Z,6324
2017-10-22T12:06:48.851Z,8132
2017-10-22T12:07:53.380Z,8340
2017-10-22T12:08:59.641Z,8036
2017-10-22T12:10:02.067Z,7708
2017-10-22T12:11:04.520Z,7172
2017-10-22T12:12:07.304Z,6344
2017-10-22T12:13:09.733Z,6192
2017-10-22T12:14:12.169Z,6288
2017-10-22T12:15:14.617Z,6712
2017-10-22T12:16:17.040Z,6460
2017-10-22T12:17:19.487Z,6296
2017-10-22T12:18:21.916Z,5836
2017-10-22T12:19:24.343Z,7004
2017-10-22T12:20:26.776Z,9748
2017-10-22T12:21:29.216Z,12620
2017-10-22T12:22:32.012Z,13488
2017-10-22T12:23:34.454Z,11868
2017-10-22T12:24:36.873Z,10612
2017-10-22T12:25:39.683Z,10896
2017-10-22T12:26:42.114Z,10504
2017-10-22T12:27:44.548Z,9876
2017-10-22T12:28:46.989Z,9344
2017-10-22T12:29:49.422Z,8748
2017-10-22T12:30:51.856Z,7844
2017-10-22T12:31:54.302Z,7640
2017-10-22T12:32:56.726Z,8544
2017-10-22T12:33:59.171Z,9836
2017-10-22T12:35:01.603Z,10944
2017-10-22T12:36:04.037Z,11504
2017-10-22T12:37:06.471Z,12436
2017-10-22T12:38:09.261Z,13324
2017-10-22T12:39:11.711Z,14188
2017-10-22T12:40:14.147Z,14948
2017-10-22T12:41:16.587Z,15604
2017-10-22T12:42:19.013Z,15932
2017-10-22T12:43:21.457Z,15948
2017-10-22T12:44:23.889Z,15556
2017-10-22T12:45:26.306Z,15896
2017-10-22T12:46:28.754Z,15620
2017-10-22T12:47:31.179Z,13976
2017-10-22T12:48:33.602Z,12496
2017-10-22T12:49:36.038Z,11028
2017-10-22T12:50:38.463Z,9896
2017-10-22T12:51:40.919Z,9364
2017-10-22T12:52:43.367Z,7672
2017-10-22T12:53:45.798Z,5708
2017-10-22T12:54:48.223Z,4992
2017-10-22T12:55:50.652Z,5304
2017-10-22T12:56:53.095Z,4944
2017-10-22T12:57:55.553Z,4284
2017-10-22T12:58:57.995Z,4116
2017-10-22T13:00:00.418Z,3992
2017-10-22T13:01:02.849Z,3552
2017-10-22T13:02:05.270Z,2768
2017-10-22T13:03:07.705Z,2392
2017-10-22T13:04:10.141Z,2460
2017-10-22T13:05:12.918Z,2416
2017-10-22T13:06:15.351Z,3248
2017-10-22T13:07:17.788Z,3212
2017-10-22T13:08:20.560Z,3844
2017-10-22T13:09:22.992Z,4152
2017-10-22T13:10:25.425Z,4728
2017-10-22T13:11:27.856Z,5464
2017-10-22T13:12:30.289Z,6312
2017-10-22T13:13:33.100Z,7272
2017-10-22T13:14:35.520Z,9160
2017-10-22T13:15:37.967Z,12204
2017-10-22T13:16:40.390Z,14652
2017-10-22T13:17:42.828Z,16456
2017-10-22T13:18:45.260Z,17444
2017-10-22T13:19:47.707Z,17252
2017-10-22T13:20:50.132Z,16724
2017-10-22T13:21:52.574Z,16076
2017-10-22T13:22:54.992Z,15536
2017-10-22T13:23:57.795Z,14392
2017-10-22T13:25:00.229Z,13004
2017-10-22T13:26:02.642Z,11936
2017-10-22T13:27:05.086Z,11196
2017-10-22T13:28:07.514Z,11232
2017-10-22T13:29:09.959Z,12200
2017-10-22T13:30:12.393Z,13252
2017-10-22T13:31:14.825Z,14568
2017-10-22T13:32:17.253Z,16748
2017-10-22T13:33:19.694Z,19104
2017-10-22T13:34:22.471Z,20160
2017-10-22T13:35:24.898Z,19360
2017-10-22T13:36:27.326Z,17280
2017-10-22T13:37:30.109Z,14740
2017-10-22T13:38:32.527Z,11704
2017-10-22T13:39:34.960Z,10496
2017-10-22T13:40:37.392Z,9524
2017-10-22T13:41:39.820Z,9848
2017-10-22T13:42:42.250Z,10088
2017-10-22T13:43:44.677Z,9276
2017-10-22T13:44:47.115Z,10628
2017-10-22T13:45:49.551Z,11024
2017-10-22T13:46:52.354Z,11536
2017-10-22T13:47:54.767Z,11912
2017-10-22T13:48:57.204Z,11412
2017-10-22T13:49:59.640Z,9700
2017-10-22T13:51:02.435Z,8196
2017-10-22T13:52:04.867Z,6680
2017-10-22T13:53:07.295Z,5504
2017-10-22T13:54:09.730Z,4648
2017-10-22T13:55:12.158Z,4544
2017-10-22T13:56:14.594Z,3644
2017-10-22T13:57:17.015Z,3196
2017-10-22T13:58:19.450Z,2788
2017-10-22T13:59:22.242Z,2880
2017-10-22T14:00:24.671Z,2924
2017-10-22T14:01:27.102Z,2564
2017-10-22T14:02:29.531Z,2536
2017-10-22T14:03:31.961Z,2632
2017-10-22T14:04:34.390Z,2752
2017-10-22T14:05:36.815Z,3500
2017-10-22T14:06:39.252Z,4288
2017-10-22T14:07:41.683Z,4104
2017-10-22T14:08:44.492Z,4308
2017-10-22T14:09:47.278Z,4428
2017-10-22T14:10:49.708Z,4860
2017-10-22T14:11:52.147Z,4416
2017-10-22T14:12:54.576Z,3688
2017-10-22T14:13:57.001Z,3752
2017-10-22T14:14:59.438Z,3416
2017-10-22T14:16:01.864Z,2632
2017-10-22T14:17:04.300Z,3144
2017-10-22T14:18:06.728Z,3252
2017-10-22T14:19:09.158Z,2552